createdAt,value
2022-08-18T00:01:16.484Z,96.60
2022-08-18T00:03:55.640Z,96.70
2022-08-18T00:06:24.215Z,97.00
2022-08-18T00:08:55.258Z,97.10
2022-08-18T00:11:23.409Z,96.90
2022-08-18T00:13:50.039Z,97.10
2022-08-18T00:16:16.634Z,97.10
2022-08-18T00:18:43.261Z,97.50
2022-08-18T00:21:09.968Z,97.50
2022-08-18T00:23:38.515Z,97.30
2022-08-18T00:26:05.426Z,97.10
2022-08-18T00:28:32.070Z,97.10
2022-08-18T00:33:25.764Z,96.80
2022-08-18T00:35:52.501Z,97.00
2022-08-18T00:40:54.355Z,96.80
2022-08-18T00:43:35.036Z,97.00
2022-08-18T00:46:02.358Z,97.40
2022-08-18T00:48:29.165Z,97.50
2022-08-18T00:50:58.912Z,97.40
2022-08-18T00:53:34.742Z,97.60
2022-08-18T00:56:09.314Z,98.10
2022-08-18T00:58:44.362Z,97.90
2022-08-18T01:01:13.900Z,97.80
2022-08-18T01:03:43.743Z,98.00
2022-08-18T01:06:17.375Z,97.60
2022-08-18T01:08:44.272Z,97.90
2022-08-18T01:11:10.861Z,97.90
2022-08-18T01:13:39.316Z,97.70
2022-08-18T01:16:26.265Z,97.70
2022-08-18T01:19:12.173Z,97.70
2022-08-18T01:21:52.229Z,97.60
2022-08-18T01:24:46.216Z,97.80
2022-08-18T01:27:17.754Z,97.50
2022-08-18T01:29:45.941Z,97.70
2022-08-18T01:32:19.457Z,97.50
2022-08-18T01:34:48.208Z,97.60
2022-08-18T01:37:20.858Z,97.60
2022-08-18T01:41:24.295Z,97.90
2022-08-18T01:42:35.744Z,98.60
2022-08-18T01:45:04.545Z,98.80
2022-08-18T01:47:33.212Z,98.50
2022-08-18T01:50:15.745Z,98.70
2022-08-18T01:52:42.455Z,98.50
2022-08-18T01:55:09.765Z,98.90
2022-08-18T01:57:44.715Z,99.00
2022-08-18T02:00:14.402Z,98.40
2022-08-18T02:02:41.987Z,98.30
2022-08-18T02:05:18.181Z,97.70
2022-08-18T02:07:44.813Z,96.30
2022-08-18T02:10:12.615Z,97.30
2022-08-18T02:12:43.785Z,96.70
2022-08-18T02:15:12.113Z,96.20
2022-08-18T02:17:40.341Z,95.20
2022-08-18T02:20:08.568Z,95.30
2022-08-18T02:22:35.590Z,95.10
2022-08-18T02:25:02.226Z,94.80
2022-08-18T02:27:29.222Z,95.90
2022-08-18T02:29:59.519Z,96.50
2022-08-18T02:32:26.573Z,97.00
2022-08-18T02:34:56.037Z,96.90
2022-08-18T02:37:22.947Z,97.00
2022-08-18T02:39:49.963Z,96.30
2022-08-18T02:42:16.915Z,96.40
2022-08-18T02:47:10.698Z,94.90
2022-08-18T02:49:37.302Z,95.30
2022-08-18T02:52:04.483Z,95.00
2022-08-18T02:54:31.131Z,95.10
2022-08-18T02:59:27.487Z,94.70
2022-08-18T03:01:56.224Z,94.60
2022-08-18T03:04:29.426Z,94.50
2022-08-18T03:06:57.922Z,94.80
2022-08-18T03:09:24.567Z,95.00
2022-08-18T03:11:52.823Z,94.70
2022-08-18T03:14:19.585Z,94.90
2022-08-18T03:16:53.387Z,95.50
2022-08-18T03:19:22.437Z,95.60
2022-08-18T03:21:49.253Z,95.90
2022-08-18T03:24:22.798Z,96.10
2022-08-18T03:26:51.310Z,96.50
2022-08-18T03:29:18.140Z,96.70
2022-08-18T03:31:45.767Z,96.00
2022-08-18T03:34:12.696Z,95.80
2022-08-18T03:36:39.692Z,95.20
2022-08-18T03:39:10.180Z,95.40
2022-08-18T03:41:58.968Z,95.50
2022-08-18T03:49:21.715Z,95.10
2022-08-18T03:54:18.250Z,95.10
2022-08-18T03:56:46.908Z,95.40
2022-08-18T03:59:17.905Z,96.10
2022-08-18T04:01:45.899Z,96.30
2022-08-18T04:04:15.880Z,96.10
2022-08-18T04:06:54.060Z,96.20
2022-08-18T04:09:21.941Z,96.50
2022-08-18T04:11:49.595Z,96.00
2022-08-18T04:14:19.456Z,96.30
2022-08-18T04:16:46.851Z,95.70
2022-08-18T04:21:53.864Z,95.00
2022-08-18T04:24:20.737Z,95.50
2022-08-18T04:26:48.562Z,95.90
2022-08-18T04:29:18.334Z,96.00
2022-08-18T04:31:45.398Z,96.20
2022-08-18T04:34:12.795Z,96.40
2022-08-18T04:36:40.029Z,96.50
2022-08-18T04:39:09.134Z,96.40
2022-08-18T04:41:37.246Z,96.00
2022-08-18T04:44:07.342Z,96.10
2022-08-18T04:46:40.009Z,96.40
2022-08-18T04:49:09.094Z,96.80
2022-08-18T04:54:24.750Z,96.60
2022-08-18T05:01:47.478Z,97.10
2022-08-18T05:04:16.399Z,97.30
2022-08-18T05:07:17.731Z,97.60
2022-08-18T05:12:15.472Z,97.50
2022-08-18T05:14:46.425Z,97.50
2022-08-18T05:17:15.298Z,97.80
2022-08-18T05:19:44.353Z,97.90
2022-08-18T05:22:14.563Z,97.70
2022-08-18T05:24:42.684Z,97.90
2022-08-18T05:27:09.307Z,98.00
2022-08-18T05:29:36.721Z,97.90
2022-08-18T05:32:09.160Z,98.30
2022-08-18T05:34:35.981Z,98.30
2022-08-18T05:37:16.131Z,98.20
2022-08-18T05:39:58.415Z,98.60
2022-08-18T05:42:28.664Z,99.00
2022-08-18T05:47:33.137Z,99.20
2022-08-18T05:50:26.091Z,99.00
2022-08-18T05:52:57.237Z,98.50
2022-08-18T05:55:52.910Z,98.30
2022-08-18T05:58:33.300Z,97.50
2022-08-18T06:01:13.620Z,97.60
2022-08-18T06:03:52.893Z,97.40
2022-08-18T06:06:25.104Z,97.40
2022-08-18T06:09:15.700Z,97.60
2022-08-18T06:11:43.250Z,98.50
2022-08-18T06:14:10.707Z,97.70
2022-08-18T06:16:47.310Z,97.10
2022-08-18T06:19:38.948Z,97.40
2022-08-18T06:22:31.273Z,97.00
2022-08-18T06:25:34.783Z,96.90
2022-08-18T06:28:14.064Z,95.40
2022-08-18T06:30:50.213Z,95.80
2022-08-18T06:36:13.039Z,97.30
2022-08-18T06:39:04.906Z,97.40
2022-08-18T06:41:42.013Z,97.60
2022-08-18T06:44:19.297Z,97.90
2022-08-18T06:46:54.338Z,97.60
2022-08-18T06:49:46.565Z,97.70
2022-08-18T06:52:33.839Z,97.90
2022-08-18T06:55:05.429Z,97.70
2022-08-18T06:57:35.273Z,97.70
2022-08-18T07:00:18.163Z,98.00
2022-08-18T07:02:57.501Z,98.00
2022-08-18T07:05:29.302Z,98.00
2022-08-18T07:08:14.413Z,98.10
2022-08-18T07:10:46.639Z,97.30
2022-08-18T07:13:13.194Z,97.30
2022-08-18T07:15:40.712Z,97.20
2022-08-18T07:18:09.124Z,97.30
2022-08-18T07:20:43.459Z,97.00
2022-08-18T07:23:33.688Z,96.80
2022-08-18T07:26:15.783Z,97.20
2022-08-18T07:28:46.616Z,97.40
2022-08-18T07:31:24.768Z,97.10
2022-08-18T07:34:25.418Z,96.90
2022-08-18T07:37:04.285Z,96.50
2022-08-18T07:40:00.093Z,96.40
2022-08-18T07:43:01.968Z,96.30
2022-08-18T07:45:44.949Z,95.80
2022-08-18T07:48:37.612Z,95.70
2022-08-18T07:51:19.584Z,95.00
2022-08-18T07:54:45.015Z,94.50
2022-08-18T07:57:42.068Z,95.20
2022-08-18T08:00:35.134Z,95.00
2022-08-18T08:03:38.756Z,94.40
2022-08-18T08:06:28.675Z,93.90
2022-08-18T08:09:14.852Z,94.40
2022-08-18T08:11:58.450Z,93.80
2022-08-18T08:14:41.333Z,93.80
2022-08-18T08:17:24.359Z,94.50
2022-08-18T08:20:08.312Z,94.40
2022-08-18T08:22:52.700Z,94.10
2022-08-18T08:25:46.298Z,94.10
2022-08-18T08:28:44.044Z,94.20
2022-08-18T08:31:37.249Z,94.50
2022-08-18T08:34:27.438Z,94.40
2022-08-18T08:37:01.134Z,94.40
2022-08-18T08:39:45.395Z,94.20
2022-08-18T08:42:31.713Z,94.00
2022-08-18T08:45:11.328Z,94.30
2022-08-18T08:47:44.315Z,94.30
2022-08-18T08:50:17.851Z,94.30
2022-08-18T08:53:05.602Z,94.40
2022-08-18T08:55:37.112Z,94.80
2022-08-18T08:58:26.300Z,94.40
2022-08-18T09:00:53.972Z,94.60
2022-08-18T09:03:39.849Z,94.00
2022-08-18T09:06:12.649Z,93.80
2022-08-18T09:09:07.829Z,93.80
2022-08-18T09:12:07.899Z,93.80
2022-08-18T09:14:59.162Z,93.70
2022-08-18T09:17:48.377Z,93.90
2022-08-18T09:20:36.017Z,93.80
2022-08-18T09:23:17.180Z,93.60
2022-08-18T09:28:42.076Z,93.50
2022-08-18T09:31:09.179Z,93.70
2022-08-18T09:33:40.403Z,93.00
2022-08-18T09:36:28.133Z,93.00
2022-08-18T09:39:27.257Z,92.70
2022-08-18T09:42:03.257Z,92.60
2022-08-18T09:44:48.400Z,92.30
2022-08-18T09:47:21.731Z,92.50
2022-08-18T09:50:29.846Z,92.30
2022-08-18T09:58:58.926Z,91.80
2022-08-18T10:01:36.359Z,91.90
2022-08-18T10:04:14.932Z,91.70
2022-08-18T10:09:44.943Z,91.50
2022-08-18T10:12:35.878Z,91.80
2022-08-18T10:18:28.417Z,91.70
2022-08-18T10:21:12.034Z,91.60
2022-08-18T10:24:02.797Z,91.50
2022-08-18T10:26:37.397Z,91.30
2022-08-18T10:29:12.113Z,91.30
2022-08-18T10:31:57.613Z,91.40
2022-08-18T10:34:52.902Z,91.00
2022-08-18T10:37:28.316Z,91.00
2022-08-18T10:39:59.641Z,90.90
2022-08-18T10:42:49.772Z,90.80
2022-08-18T10:45:29.988Z,91.00
2022-08-18T10:48:24.300Z,91.20
2022-08-18T10:51:11.327Z,91.00
2022-08-18T10:53:52.894Z,90.80
2022-08-18T10:56:45.470Z,90.80
2022-08-18T10:59:50.458Z,90.60
2022-08-18T11:02:24.790Z,90.80
2022-08-18T11:04:58.707Z,91.00
2022-08-18T11:07:30.853Z,90.80
2022-08-18T11:10:29.237Z,90.30
2022-08-18T11:13:10.058Z,90.80
2022-08-18T11:15:55.696Z,90.80
2022-08-18T11:20:51.944Z,90.60
2022-08-18T11:23:18.613Z,90.60
2022-08-18T11:25:45.419Z,90.70
2022-08-18T11:28:21.312Z,90.80
2022-08-18T11:30:58.095Z,90.70
2022-08-18T11:33:25.053Z,90.50
2022-08-18T11:35:59.307Z,90.30
2022-08-18T11:38:31.517Z,90.00
2022-08-18T11:41:19.730Z,89.70
2022-08-18T11:43:48.386Z,89.70
2022-08-18T11:46:28.190Z,89.90
2022-08-18T11:49:13.897Z,89.90
2022-08-18T11:51:55.818Z,89.20
2022-08-18T11:54:33.472Z,89.20
2022-08-18T11:57:42.805Z,89.00
2022-08-18T12:00:43.092Z,90.00
2022-08-18T12:03:38.294Z,88.90
2022-08-18T12:06:26.939Z,89.80
2022-08-18T12:09:30.616Z,89.70
2022-08-18T12:12:28.127Z,89.70
2022-08-18T12:15:26.103Z,88.40
2022-08-18T12:18:03.450Z,88.40
2022-08-18T12:25:25.730Z,87.60
2022-08-18T12:27:54.050Z,87.90
2022-08-18T12:30:20.708Z,88.40
2022-08-18T12:32:50.587Z,87.30
2022-08-18T12:35:22.094Z,88.30
2022-08-18T12:38:13.437Z,87.30
2022-08-18T12:40:36.317Z,86.10
2022-08-18T12:45:32.691Z,85.80
2022-08-18T12:48:04.009Z,86.40
2022-08-18T12:50:32.790Z,86.80
2022-08-18T12:53:01.843Z,84.70
2022-08-18T12:55:34.730Z,83.90
2022-08-18T12:58:01.749Z,84.70
2022-08-18T13:03:15.087Z,84.00
2022-08-18T13:05:42.724Z,84.10
2022-08-18T13:08:30.568Z,84.00
2022-08-18T13:11:14.750Z,83.00
2022-08-18T13:13:53.053Z,82.70
2022-08-18T13:16:30.589Z,83.30
2022-08-18T13:18:57.630Z,81.10
2022-08-18T13:21:24.363Z,81.60
2022-08-18T13:26:33.556Z,82.70
2022-08-18T13:29:00.330Z,82.80
2022-08-18T13:31:27.874Z,82.50
2022-08-18T13:34:00.680Z,78.90
2022-08-18T13:36:46.240Z,78.60
2022-08-18T13:39:16.964Z,79.90
2022-08-18T13:41:45.613Z,79.20
2022-08-18T13:44:13.308Z,80.10
2022-08-18T13:46:47.192Z,80.40
2022-08-18T13:49:23.743Z,80.10
2022-08-18T13:51:59.185Z,79.10
2022-08-18T13:54:35.370Z,80.50
2022-08-18T13:57:03.277Z,80.80
2022-08-18T13:59:32.909Z,80.70
2022-08-18T14:02:01.767Z,80.30
2022-08-18T14:04:28.878Z,79.60
2022-08-18T14:06:57.212Z,80.20
2022-08-18T14:09:27.750Z,79.80
2022-08-18T14:12:15.939Z,79.30
2022-08-18T14:17:19.806Z,80.30
2022-08-18T14:20:10.488Z,80.60
2022-08-18T14:25:46.613Z,78.60
2022-08-18T14:28:13.617Z,79.50
2022-08-18T14:30:54.267Z,79.80
2022-08-18T14:33:29.201Z,79.80
2022-08-18T14:36:10.025Z,78.50
2022-08-18T14:38:36.993Z,79.10
2022-08-18T14:41:07.607Z,78.00
2022-08-18T14:43:51.776Z,78.80
2022-08-18T14:46:23.189Z,77.50
2022-08-18T14:48:57.227Z,77.80
2022-08-18T14:51:27.240Z,79.20
2022-08-18T14:53:55.694Z,79.80
2022-08-18T14:56:23.403Z,80.40
2022-08-18T14:58:54.994Z,80.00
2022-08-18T15:03:49.777Z,79.10
2022-08-18T15:06:17.025Z,77.70
2022-08-18T15:08:49.446Z,78.10
2022-08-18T15:11:16.703Z,78.00
2022-08-18T15:13:45.997Z,78.90
2022-08-18T15:16:15.079Z,78.30
2022-08-18T15:18:43.603Z,78.90
2022-08-18T15:21:35.391Z,79.30
2022-08-18T15:24:25.086Z,78.50
2022-08-18T15:26:58.006Z,78.40
2022-08-18T15:29:28.058Z,77.00
2022-08-18T15:32:01.960Z,78.70
2022-08-18T15:34:46.227Z,77.80
2022-08-18T15:37:15.835Z,77.60
2022-08-18T15:39:46.307Z,78.20
2022-08-18T15:42:19.104Z,78.70
2022-08-18T15:49:48.033Z,78.50
2022-08-18T15:52:15.133Z,78.90
2022-08-18T15:54:44.509Z,77.60
2022-08-18T15:57:39.171Z,78.50
2022-08-18T16:00:05.053Z,79.10
2022-08-18T16:02:31.721Z,79.20
2022-08-18T16:05:10.257Z,79.80
2022-08-18T16:07:41.280Z,77.00
2022-08-18T16:10:21.937Z,77.70
2022-08-18T16:12:49.509Z,78.60
2022-08-18T16:15:21.389Z,78.20
2022-08-18T16:17:49.880Z,79.20
2022-08-18T16:20:18.642Z,78.90
2022-08-18T16:22:47.401Z,79.00
2022-08-18T16:25:16.366Z,78.40
2022-08-18T16:27:43.867Z,79.00
2022-08-18T16:30:16.452Z,79.30
2022-08-18T16:32:43.467Z,79.40
2022-08-18T16:35:11.046Z,77.80
2022-08-18T16:37:37.965Z,78.70
2022-08-18T16:40:05.401Z,79.70
2022-08-18T16:42:34.901Z,78.90
2022-08-18T16:45:03.806Z,78.50
2022-08-18T16:47:38.807Z,79.40
2022-08-18T16:50:11.614Z,78.90
2022-08-18T16:52:39.173Z,78.30
2022-08-18T16:55:09.159Z,79.00
2022-08-18T16:58:04.674Z,78.80
2022-08-18T17:00:55.118Z,79.80
2022-08-18T17:03:42.053Z,80.40
2022-08-18T17:06:12.228Z,79.30
2022-08-18T17:08:40.041Z,79.90
2022-08-18T17:11:10.468Z,79.60
2022-08-18T17:13:39.563Z,79.70
2022-08-18T17:16:08.041Z,77.50
2022-08-18T17:18:36.031Z,79.10
2022-08-18T17:21:04.535Z,79.30
2022-08-18T17:23:32.185Z,79.30
2022-08-18T17:25:59.677Z,79.00
2022-08-18T17:28:35.240Z,78.70
2022-08-18T17:31:02.136Z,79.50
2022-08-18T17:33:35.666Z,78.30
2022-08-18T17:36:08.156Z,79.50
2022-08-18T17:38:43.665Z,78.30
2022-08-18T17:41:11.900Z,79.10
2022-08-18T17:46:17.675Z,79.20
2022-08-18T17:49:12.559Z,78.90
2022-08-18T17:51:45.234Z,78.70
2022-08-18T17:54:36.333Z,78.40
2022-08-18T17:57:10.512Z,78.30
2022-08-18T18:00:11.421Z,78.90
2022-08-18T18:02:40.045Z,78.20
2022-08-18T18:05:14.205Z,78.10
2022-08-18T18:07:52.739Z,78.20
2022-08-18T18:10:27.883Z,78.30
2022-08-18T18:13:08.629Z,78.90
2022-08-18T18:15:40.828Z,78.40
2022-08-18T18:18:32.103Z,80.20
2022-08-18T18:21:06.023Z,79.00
2022-08-18T18:23:41.247Z,79.60
2022-08-18T18:26:29.337Z,79.90
2022-08-18T18:29:13.417Z,79.80
2022-08-18T18:31:44.349Z,80.00
2022-08-18T18:34:28.197Z,80.30
2022-08-18T18:39:33.129Z,80.30
2022-08-18T18:42:19.283Z,80.60
2022-08-18T18:44:58.362Z,80.70
2022-08-18T18:48:03.562Z,81.20
2022-08-18T18:50:55.602Z,80.60
2022-08-18T18:53:51.747Z,80.60
2022-08-18T18:56:28.570Z,81.40
2022-08-18T18:59:35.722Z,81.50
2022-08-18T19:02:34.693Z,82.00
2022-08-18T19:05:26.892Z,82.60
2022-08-18T19:08:00.960Z,82.60
2022-08-18T19:10:46.071Z,82.90
2022-08-18T19:13:32.838Z,82.90
2022-08-18T19:16:45.089Z,83.60
2022-08-18T19:22:18.882Z,84.00
2022-08-18T19:24:57.898Z,84.00
2022-08-18T19:27:30.884Z,84.00
2022-08-18T19:30:04.014Z,84.30
2022-08-18T19:32:36.881Z,84.40
2022-08-18T19:35:11.916Z,84.80
2022-08-18T19:38:22.540Z,84.90
2022-08-18T19:41:07.938Z,85.10
2022-08-18T19:43:56.451Z,85.20
2022-08-18T19:46:39.463Z,85.60
2022-08-18T19:49:16.505Z,85.80
2022-08-18T19:51:44.523Z,85.80
2022-08-18T19:54:41.760Z,86.40
2022-08-18T19:57:53.865Z,86.40
2022-08-18T20:00:51.161Z,86.70
2022-08-18T20:03:29.729Z,87.40
2022-08-18T20:06:33.947Z,87.20
2022-08-18T20:09:26.187Z,87.20
2022-08-18T20:12:08.476Z,87.40
2022-08-18T20:14:39.247Z,87.20
2022-08-18T20:17:16.759Z,87.00
2022-08-18T20:19:57.294Z,87.40
2022-08-18T20:22:24.574Z,88.20
2022-08-18T20:25:08.199Z,87.60
2022-08-18T20:27:43.055Z,88.20
2022-08-18T20:30:53.364Z,88.20
2022-08-18T20:33:30.733Z,88.20
2022-08-18T20:36:16.181Z,88.70
2022-08-18T20:38:49.117Z,89.10
2022-08-18T20:41:41.979Z,89.70
2022-08-18T20:44:29.066Z,89.80
2022-08-18T20:47:31.348Z,90.10
2022-08-18T20:50:19.739Z,90.50
2022-08-18T20:53:08.698Z,90.40
2022-08-18T20:58:20.451Z,90.70
2022-08-18T21:00:56.800Z,90.90
2022-08-18T21:03:35.604Z,90.70
2022-08-18T21:06:02.794Z,90.80
2022-08-18T21:08:31.670Z,91.00
2022-08-18T21:11:02.420Z,91.40
2022-08-18T21:13:41.231Z,91.60
2022-08-18T21:16:38.635Z,91.60
2022-08-18T21:19:13.605Z,91.60
2022-08-18T21:21:45.609Z,91.70
2022-08-18T21:24:33.792Z,91.90
2022-08-18T21:27:26.127Z,92.00
2022-08-18T21:30:19.651Z,91.90
2022-08-18T21:32:47.994Z,91.60
2022-08-18T21:35:31.600Z,91.60
2022-08-18T21:38:12.650Z,91.90
2022-08-18T21:40:48.559Z,91.90
2022-08-18T21:43:40.173Z,92.00
2022-08-18T21:46:08.895Z,91.80
2022-08-18T21:48:49.175Z,91.90
2022-08-18T21:51:25.079Z,92.00
2022-08-18T21:53:53.494Z,92.40
2022-08-18T21:56:29.216Z,92.60
2022-08-18T21:59:14.387Z,92.70
2022-08-18T22:01:50.356Z,92.70
2022-08-18T22:04:45.074Z,93.00
2022-08-18T22:07:34.168Z,93.10
2022-08-18T22:10:37.048Z,93.40
2022-08-18T22:13:22.469Z,93.50
2022-08-18T22:15:50.429Z,93.50
2022-08-18T22:18:17.742Z,93.60
2022-08-18T22:20:44.270Z,93.60
2022-08-18T22:23:32.281Z,93.50
2022-08-18T22:26:27.210Z,93.80
2022-08-18T22:29:20.909Z,93.80
2022-08-18T22:31:50.113Z,93.80
2022-08-18T22:34:27.825Z,93.90
2022-08-18T22:37:13.269Z,94.00
2022-08-18T22:39:55.631Z,94.10
2022-08-18T22:42:29.261Z,93.90
2022-08-18T22:45:00.124Z,94.10
2022-08-18T22:47:29.491Z,93.50
2022-08-18T22:49:56.466Z,93.50
2022-08-18T22:52:36.978Z,93.50
2022-08-18T22:55:08.171Z,93.50
2022-08-18T22:57:37.421Z,93.70
2022-08-18T23:00:08.706Z,93.90
2022-08-18T23:02:37.073Z,94.10
2022-08-18T23:05:05.142Z,94.20
2022-08-18T23:07:32.436Z,94.40
2022-08-18T23:09:59.288Z,94.40
2022-08-18T23:12:26.377Z,94.60
2022-08-18T23:14:53.408Z,94.80
2022-08-18T23:17:21.399Z,94.70
2022-08-18T23:19:48.472Z,94.60
2022-08-18T23:22:19.255Z,94.80
2022-08-18T23:24:45.859Z,94.90
2022-08-18T23:27:12.441Z,95.00
2022-08-18T23:29:41.090Z,94.90
2022-08-18T23:32:07.742Z,94.90
2022-08-18T23:34:35.569Z,95.10
2022-08-18T23:37:03.384Z,95.10
2022-08-18T23:39:33.076Z,95.00
2022-08-18T23:42:00.758Z,94.30
2022-08-18T23:44:28.168Z,94.20
2022-08-18T23:46:59.783Z,94.40
2022-08-18T23:49:28.467Z,94.70
2022-08-18T23:51:58.008Z,94.30
2022-08-18T23:54:29.061Z,94.10
2022-08-18T23:56:56.172Z,94.20
2022-08-18T23:59:24.095Z,94.10
